Time;durP1;ratioP1;P1;durP2;ratioP2;P2;SDS_P1;SDS_P2;PMS_P1;PMS_P2;Temp;Humidity;BMP_temperature;BMP_pressure;BME280_temperature;BME280_humidity;BME280_pressure;Samples;Min_cycle;Max_cycle;Signal;HPM_P1;HPM_P2
2024/01/10 00:01:11;;;;;;;13.83;7.20;;;-4.20;39.60;;;-5.73;52.42;98891.78;5047060;28;20461;-73
2024/01/10 00:03:39;;;;;;;14.10;7.37;;;-4.20;39.80;;;-5.79;52.21;98895.63;5046712;28;20451;-76
2024/01/10 00:06:06;;;;;;;15.60;8.93;;;-4.20;39.80;;;-5.89;52.42;98870.78;5035466;28;20464;-79
2024/01/10 00:08:34;;;;;;;15.20;8.43;;;-4.20;39.90;;;-5.72;52.26;98893.50;5038568;28;20459;-76
2024/01/10 00:11:01;;;;;;;15.87;8.60;;;-4.20;39.90;;;-5.76;52.29;98892.81;5041990;28;20470;-79
2024/01/10 00:13:30;;;;;;;13.93;7.87;;;-4.20;39.80;;;-5.76;52.46;98886.69;5042092;28;20453;-75
2024/01/10 00:15:58;;;;;;;17.27;9.37;;;-4.20;39.80;;;-5.73;52.07;98876.81;5058851;28;20935;-73
2024/01/10 00:18:25;;;;;;;14.20;8.10;;;-4.10;39.80;;;-5.62;52.30;98883.25;5045072;28;20462;-72
2024/01/10 00:20:54;;;;;;;12.97;8.43;;;-4.10;39.90;;;-5.59;52.16;98877.81;5045838;28;20469;-70
2024/01/10 00:23:21;;;;;;;13.90;8.33;;;-4.10;39.80;;;-5.64;52.38;98879.88;5046182;28;20459;-73
2024/01/10 00:25:49;;;;;;;14.43;7.70;;;-4.10;39.90;;;-5.60;52.34;98870.84;5049329;28;20454;-76
2024/01/10 00:28:17;;;;;;;19.57;8.33;;;-4.10;39.90;;;-5.57;52.23;98871.50;5044125;28;20470;-76
2024/01/10 00:30:47;;;;;;;12.93;7.30;;;-4.10;39.90;;;-5.69;51.98;98865.19;5044976;28;20479;-77
2024/01/10 00:33:15;;;;;;;12.10;7.33;;;-4.10;39.80;;;-5.71;52.31;98864.41;5044810;28;20481;-78
2024/01/10 00:35:42;;;;;;;14.00;8.60;;;-4.20;39.90;;;-5.73;52.48;98861.03;5048059;28;20466;-79
2024/01/10 00:38:10;;;;;;;12.63;7.67;;;-4.10;40.10;;;-5.74;52.84;98863.78;5047508;28;21065;-79
2024/01/10 00:40:37;;;;;;;11.67;7.57;;;-4.20;40.10;;;-5.70;52.79;98867.91;5044901;28;20462;-83
2024/01/10 00:43:05;;;;;;;14.73;8.77;;;-4.20;40.00;;;-6.19;52.65;98780.44;5048576;28;20457;-82
2024/01/10 00:45:32;;;;;;;13.03;7.30;;;-4.20;40.00;;;-5.71;52.24;98856.50;5051063;28;20450;-83
2024/01/10 00:48:01;;;;;;;13.13;8.30;;;-4.10;40.00;;;-5.70;52.35;98858.22;5052888;28;20453;-81
2024/01/10 00:50:28;;;;;;;16.20;8.53;;;-4.10;40.20;;;-5.63;52.55;98857.88;5049907;28;20473;-80
2024/01/10 00:52:55;;;;;;;13.30;7.83;;;-4.10;39.90;;;-5.79;52.32;98840.34;5049821;28;20458;-81
2024/01/10 00:55:23;;;;;;;10.40;7.43;;;-4.10;39.90;;;-5.65;52.40;98851.84;5047556;28;20462;-81
2024/01/10 00:57:50;;;;;;;13.80;8.40;;;-4.20;40.00;;;-5.75;52.49;98855.00;5047571;28;20445;-78
2024/01/10 01:00:17;;;;;;;16.73;8.20;;;-4.20;40.00;;;-5.70;52.51;98854.75;5048669;28;20512;-80
2024/01/10 01:02:45;;;;;;;14.10;6.90;;;-4.20;40.00;;;-5.73;52.64;98861.03;5048501;28;20448;-80
2024/01/10 01:05:13;;;;;;;15.37;8.10;;;-4.20;40.10;;;-5.79;52.72;98850.88;5050079;28;20457;-76
2024/01/10 01:07:41;;;;;;;17.80;7.90;;;-4.20;40.20;;;-5.77;52.68;98862.16;5049114;28;21054;-79
2024/01/10 01:10:09;;;;;;;11.70;7.80;;;-4.20;40.20;;;-5.76;52.79;98848.06;5050162;28;20483;-79
2024/01/10 01:12:37;;;;;;;12.70;7.63;;;-4.20;40.20;;;-5.80;52.96;98849.19;5049093;28;20511;-79
2024/01/10 01:15:06;;;;;;;13.67;8.37;;;-4.20;40.20;;;-5.75;52.89;98857.66;5045427;28;20943;-81
2024/01/10 01:17:34;;;;;;;13.50;8.00;;;-4.20;40.20;;;-6.37;52.87;98747.28;5038230;28;20958;-76
2024/01/10 01:20:02;;;;;;;9.27;6.37;;;-4.20;40.30;;;-5.81;53.31;98860.66;5042393;28;20454;-74
2024/01/10 01:22:32;;;;;;;15.20;7.60;;;-4.20;40.40;;;-5.76;53.22;98860.34;5037867;28;20451;-79
2024/01/10 01:24:59;;;;;;;11.50;7.67;;;-4.20;40.40;;;-5.83;53.45;98859.91;5044382;28;20542;-79
2024/01/10 01:27:26;;;;;;;11.23;7.70;;;-4.30;40.40;;;-5.79;53.53;98863.19;5043776;28;20963;-78
2024/01/10 01:29:53;;;;;;;14.40;7.60;;;-4.30;40.50;;;-5.75;53.36;98862.09;5048163;28;20458;-75
2024/01/10 01:32:20;;;;;;;12.20;7.80;;;-4.20;40.60;;;-5.83;53.71;98862.53;5042942;28;20481;-80
2024/01/10 01:34:48;;;;;;;11.40;7.17;;;-4.30;40.50;;;-5.76;53.65;98866.50;5055872;28;20911;-80
2024/01/10 01:37:15;;;;;;;13.73;7.30;;;-4.30;40.60;;;-5.87;53.83;98868.91;5042341;28;20656;-76
2024/01/10 01:39:43;;;;;;;21.00;9.27;;;-4.30;40.80;;;-6.13;53.83;98810.78;5046115;28;20477;-78
2024/01/10 01:42:11;;;;;;;14.47;8.17;;;-4.30;40.90;;;-5.85;53.87;98853.84;5043141;28;20501;-75
2024/01/10 01:44:39;;;;;;;15.83;7.83;;;-4.30;40.90;;;-5.80;53.83;98848.31;5048372;28;20461;-79
2024/01/10 01:47:07;;;;;;;17.60;8.07;;;-4.30;40.80;;;-5.85;53.96;98861.75;5049692;28;20468;-77
2024/01/10 01:49:35;;;;;;;15.40;8.57;;;-4.30;40.80;;;-5.84;54.04;98860.81;5061227;28;20464;-79
2024/01/10 01:52:03;;;;;;;12.47;7.03;;;-4.30;40.80;;;-5.74;54.09;98864.59;5048666;28;20480;-74
2024/01/10 01:54:32;;;;;;;11.70;7.77;;;-4.20;41.00;;;-5.83;54.11;98858.09;5077623;28;20504;-72
2024/01/10 01:57:01;;;;;;;12.33;8.17;;;-4.20;40.90;;;-5.77;53.81;98864.78;5061922;28;20441;-77
2024/01/10 01:59:28;;;;;;;14.40;7.80;;;-4.20;40.90;;;-5.79;54.27;98866.66;5061004;28;20446;-76
2024/01/10 02:01:57;;;;;;;10.77;6.97;;;-4.20;41.00;;;-5.79;54.20;98856.13;5047960;28;20853;-78
2024/01/10 02:04:24;;;;;;;15.30;9.20;;;-4.20;41.00;;;-5.84;54.37;98863.44;5038095;28;20456;-80
2024/01/10 02:06:51;;;;;;;10.30;7.10;;;-4.20;41.10;;;-5.74;54.30;98874.31;5046119;28;20453;-81
2024/01/10 02:09:19;;;;;;;15.80;8.70;;;-4.30;41.10;;;-5.77;54.36;98871.81;5036650;28;20451;-80
2024/01/10 02:11:46;;;;;;;13.80;8.20;;;-4.20;41.20;;;-5.77;54.60;98877.97;5043411;28;20477;-77
2024/01/10 02:14:16;;;;;;;13.57;7.80;;;-4.20;41.30;;;-5.77;54.54;98869.19;5041752;28;20454;-78
2024/01/10 02:16:43;;;;;;;15.53;8.50;;;-4.30;41.30;;;-5.78;54.77;98867.50;5042458;28;20457;-79
2024/01/10 02:19:22;;;;;;;15.13;8.37;;;-4.30;41.40;;;-6.03;55.09;98851.41;5040895;28;21013;-77
2024/01/10 02:21:49;;;;;;;13.33;7.70;;;-4.30;41.50;;;-6.03;54.83;98842.69;5044579;28;20455;-78
2024/01/10 02:24:16;;;;;;;16.13;7.67;;;-4.30;41.50;;;-5.83;55.17;98870.44;5044157;28;20450;-78
2024/01/10 02:26:45;;;;;;;14.73;8.10;;;-4.20;41.60;;;-5.85;54.64;98859.13;5044813;28;20453;-79
2024/01/10 02:29:12;;;;;;;16.27;9.27;;;-4.20;41.60;;;-5.90;55.28;98863.81;5045096;28;20823;-78
2024/01/10 02:31:39;;;;;;;13.10;7.27;;;-4.30;41.60;;;-5.81;55.36;98860.66;5044684;28;20474;-76
2024/01/10 02:34:06;;;;;;;15.30;9.20;;;-4.30;41.70;;;-5.85;55.06;98862.63;5043261;28;20467;-77
2024/01/10 02:36:34;;;;;;;15.90;8.10;;;-4.30;41.60;;;-5.83;55.28;98867.81;5030573;28;20447;-71
2024/01/10 02:39:01;;;;;;;15.73;7.50;;;-4.20;41.70;;;-5.87;55.70;98866.25;5044527;28;21254;-77
2024/01/10 02:41:28;;;;;;;15.10;8.87;;;-4.30;42.20;;;-5.91;55.55;98852.47;5040289;28;20461;-74
2024/01/10 02:43:58;;;;;;;12.93;8.67;;;-4.30;41.80;;;-5.93;55.23;98846.41;5044412;28;20469;-78
2024/01/10 02:46:27;;;;;;;16.03;9.00;;;-4.30;41.80;;;-5.89;55.35;98860.25;5041259;28;20463;-77
2024/01/10 02:48:56;;;;;;;16.50;9.43;;;-4.30;41.80;;;-5.91;55.71;98862.13;5045183;28;20547;-79
2024/01/10 02:51:23;;;;;;;15.67;9.83;;;-4.30;41.90;;;-5.87;55.54;98847.84;5045154;28;20562;-75
2024/01/10 02:53:50;;;;;;;21.00;8.80;;;-4.30;41.90;;;-5.92;55.82;98861.25;5036158;28;20971;-76
2024/01/10 02:56:17;;;;;;;13.47;7.97;;;-4.40;41.90;;;-5.93;55.92;98862.19;5038782;28;20459;-77
2024/01/10 02:58:44;;;;;;;13.97;7.73;;;-4.40;42.00;;;-5.97;55.98;98853.66;5044999;28;20469;-77
2024/01/10 03:01:15;;;;;;;15.17;8.97;;;-4.40;42.00;;;-5.98;55.93;98859.88;5039471;28;20451;-70
2024/01/10 03:03:42;;;;;;;15.80;8.33;;;-4.40;42.10;;;-5.94;56.08;98855.25;5044650;28;20494;-76
2024/01/10 03:06:10;;;;;;;17.20;8.30;;;-4.40;42.10;;;-5.98;56.20;98844.06;5043619;28;20955;-76
2024/01/10 03:08:37;;;;;;;15.60;9.20;;;-4.40;42.10;;;-6.04;56.08;98854.16;5045602;28;21091;-73
2024/01/10 03:11:05;;;;;;;12.60;8.57;;;-4.50;42.10;;;-6.02;56.37;98845.19;5038560;28;20710;-78
2024/01/10 03:13:32;;;;;;;15.13;8.93;;;-4.50;42.20;;;-6.07;56.24;98847.25;5055966;28;20459;-80
2024/01/10 03:16:00;;;;;;;15.60;7.97;;;-4.50;42.50;;;-6.05;56.22;98842.75;5039567;28;20492;-78
2024/01/10 03:18:29;;;;;;;15.77;8.93;;;-4.50;42.40;;;-6.12;57.07;98849.31;5041164;28;20458;-73
2024/01/10 03:20:56;;;;;;;15.80;9.10;;;-4.60;42.40;;;-6.10;56.67;98846.59;5036444;28;20187;-79
2024/01/10 03:23:23;;;;;;;14.43;8.10;;;-4.60;42.50;;;-6.16;56.73;98845.16;5033813;28;20493;-75
2024/01/10 03:25:51;;;;;;;18.87;9.60;;;-4.70;42.50;;;-6.15;56.67;98850.34;5035130;28;21044;-79
2024/01/10 03:28:18;;;;;;;17.53;10.10;;;-4.70;42.50;;;-6.18;56.45;98854.94;5031305;28;20553;-78
2024/01/10 03:30:46;;;;;;;14.63;8.43;;;-4.60;42.50;;;-6.13;56.73;98843.19;5039409;28;20481;-75
2024/01/10 03:33:13;;;;;;;15.30;9.50;;;-4.60;42.60;;;-6.20;56.35;98851.53;5034060;28;20821;-77
2024/01/10 03:35:45;;;;;;;13.10;9.30;;;-4.60;42.60;;;-6.24;56.93;98844.78;5037866;28;20460;-78
2024/01/10 03:38:12;;;;;;;13.20;8.37;;;-4.70;42.50;;;-6.24;57.14;98850.84;5019574;28;20473;-76
2024/01/10 03:40:39;;;;;;;11.30;7.30;;;-4.70;42.60;;;-6.20;57.19;98851.53;5047733;28;20556;-78
2024/01/10 03:43:06;;;;;;;14.37;9.37;;;-4.70;42.60;;;-6.23;57.28;98851.72;5041500;28;20559;-79
2024/01/10 03:45:33;;;;;;;13.50;8.33;;;-4.70;42.70;;;-6.28;57.27;98859.88;5044772;28;20450;-82
2024/01/10 03:48:00;;;;;;;14.87;7.80;;;-4.70;42.70;;;-6.26;57.31;98853.59;5044439;28;20442;-76
2024/01/10 03:50:28;;;;;;;16.17;8.60;;;-4.70;42.70;;;-6.30;57.17;98856.50;5042638;28;20910;-76
2024/01/10 03:52:56;;;;;;;16.53;8.27;;;-4.70;42.80;;;-6.35;57.50;98853.28;5053334;28;20450;-79
2024/01/10 03:55:23;;;;;;;14.63;8.67;;;-4.70;42.90;;;-6.28;57.56;98855.47;5052541;28;20454;-80
2024/01/10 03:57:51;;;;;;;10.80;7.17;;;-4.80;42.90;;;-6.31;57.59;98850.38;5038840;28;20787;-78
2024/01/10 04:00:18;;;;;;;14.40;7.60;;;-4.80;42.90;;;-6.36;57.70;98852.41;5052662;28;21145;-77
2024/01/10 04:02:46;;;;;;;17.87;9.47;;;-4.80;42.90;;;-6.35;57.70;98864.63;5048409;28;20511;-81
2024/01/10 04:05:13;;;;;;;13.63;8.80;;;-4.80;42.90;;;-6.31;57.49;98854.78;5048674;28;20469;-73
2024/01/10 04:07:43;;;;;;;17.23;9.43;;;-4.80;43.00;;;-6.36;57.65;98859.47;5058275;28;20457;-80
2024/01/10 04:10:13;;;;;;;16.57;8.07;;;-4.80;43.00;;;-6.43;57.84;98853.72;5059555;28;20483;-78
2024/01/10 04:12:40;;;;;;;15.30;8.63;;;-4.80;43.10;;;-6.43;57.87;98846.66;5055258;28;20465;-78
2024/01/10 04:15:09;;;;;;;16.27;8.00;;;-4.90;43.10;;;-6.46;58.17;98851.25;5042453;28;21065;-82
2024/01/10 04:17:36;;;;;;;14.87;8.27;;;-4.80;43.10;;;-6.39;58.14;98860.50;5037575;28;20504;-81
2024/01/10 04:20:05;;;;;;;18.07;9.17;;;-4.90;43.20;;;-6.42;57.99;98847.53;5043881;28;20477;-79
2024/01/10 04:22:32;;;;;;;13.10;7.63;;;-4.90;43.50;;;-6.45;58.15;98842.41;5044132;28;20465;-78
2024/01/10 04:25:00;;;;;;;17.07;9.13;;;-4.90;43.30;;;-6.46;58.20;98851.25;5048202;28;20511;-77
2024/01/10 04:27:29;;;;;;;16.07;8.97;;;-4.90;43.30;;;-6.50;58.08;98840.06;5037051;28;20449;-78
2024/01/10 04:29:56;;;;;;;12.23;7.90;;;-4.90;43.30;;;-6.47;58.37;98846.91;5055731;28;20492;-79
2024/01/10 04:32:23;;;;;;;16.10;8.37;;;-4.90;43.30;;;-6.66;58.14;98824.31;5054867;28;20477;-75
2024/01/10 04:34:51;;;;;;;13.53;7.33;;;-4.90;43.30;;;-6.47;58.07;98850.41;5041375;28;20535;-74
2024/01/10 04:37:19;;;;;;;13.53;8.57;;;-4.90;43.30;;;-6.46;58.31;98843.34;5052462;28;20462;-76
2024/01/10 04:39:46;;;;;;;15.90;7.10;;;-4.90;43.30;;;-6.48;58.08;98850.47;5050430;28;20494;-76
2024/01/10 04:42:15;;;;;;;14.77;9.27;;;-4.90;43.30;;;-6.52;58.19;98851.59;5050313;28;20467;-74
2024/01/10 04:44:43;;;;;;;15.73;9.03;;;-4.90;43.20;;;-6.53;58.04;98844.66;5040654;28;20450;-78
2024/01/10 04:47:10;;;;;;;13.97;8.63;;;-4.90;43.20;;;-6.49;57.63;98840.91;5047993;28;20457;-78
2024/01/10 04:49:38;;;;;;;15.57;8.77;;;-4.90;43.10;;;-6.61;58.16;98843.28;5044141;28;20453;-73
2024/01/10 04:52:06;;;;;;;17.27;7.47;;;-5.00;43.20;;;-6.48;58.42;98845.22;5054470;28;20509;-77
2024/01/10 04:54:34;;;;;;;12.80;7.30;;;-4.90;43.30;;;-6.59;57.91;98836.19;5048650;28;20461;-78
2024/01/10 04:57:01;;;;;;;14.37;9.47;;;-4.90;43.20;;;-6.59;58.08;98840.56;5062661;28;20562;-75
2024/01/10 04:59:28;;;;;;;13.27;7.40;;;-5.00;43.20;;;-6.52;58.19;98843.72;5051165;28;20451;-77
2024/01/10 05:01:57;;;;;;;16.93;8.10;;;-4.90;43.20;;;-6.54;57.96;98846.41;5040051;28;20531;-78
2024/01/10 05:04:24;;;;;;;15.67;7.90;;;-4.90;43.20;;;-6.50;58.08;98836.56;5044484;28;20450;-76
2024/01/10 05:06:51;;;;;;;16.07;8.37;;;-4.90;43.20;;;-6.56;57.92;98840.41;5041695;28;20465;-76
2024/01/10 05:09:19;;;;;;;17.73;8.13;;;-4.90;43.20;;;-6.56;58.15;98845.66;5044187;28;20458;-80
2024/01/10 05:11:50;;;;;;;17.00;8.37;;;-4.90;43.20;;;-6.55;58.20;98850.84;5038654;28;20474;-76
2024/01/10 05:14:19;;;;;;;16.37;9.30;;;-4.90;43.20;;;-6.61;58.35;98832.75;5043502;28;20966;-78
2024/01/10 05:16:47;;;;;;;14.80;8.00;;;-5.00;43.20;;;-6.53;58.27;98842.84;5034604;28;20535;-77
2024/01/10 05:19:15;;;;;;;14.00;8.30;;;-5.00;43.30;;;-6.57;58.16;98844.81;5044862;28;20454;-73
2024/01/10 05:21:43;;;;;;;16.10;7.83;;;-5.00;43.20;;;-6.49;57.94;98840.91;5046623;28;20480;-77
2024/01/10 05:24:10;;;;;;;12.20;7.40;;;-5.00;43.30;;;-6.58;58.09;98831.75;5057512;28;20495;-77
2024/01/10 05:26:37;;;;;;;11.93;8.10;;;-5.00;43.20;;;-6.60;57.85;98838.88;5045674;28;20449;-78
2024/01/10 05:29:05;;;;;;;15.80;8.50;;;-5.00;43.10;;;-6.53;57.96;98840.22;5044682;28;20445;-79
2024/01/10 05:31:32;;;;;;;14.70;8.37;;;-5.00;43.10;;;-6.61;58.25;98832.75;5040463;28;20478;-78
2024/01/10 05:33:59;;;;;;;14.93;8.93;;;-5.00;43.20;;;-6.59;57.96;98841.44;5044705;28;20483;-78
2024/01/10 05:36:28;;;;;;;17.30;9.60;;;-5.00;43.20;;;-6.57;57.85;98844.81;5052219;28;21078;-76
2024/01/10 05:38:55;;;;;;;15.20;8.27;;;-5.00;43.30;;;-6.47;58.06;98839.88;5054037;28;20446;-78
2024/01/10 05:41:22;;;;;;;15.67;9.03;;;-4.90;43.40;;;-6.44;58.27;98838.88;5055857;28;20474;-74
2024/01/10 05:43:51;;;;;;;16.03;8.40;;;-4.90;43.40;;;-6.57;57.84;98839.56;5054997;28;20470;-75
2024/01/10 05:46:19;;;;;;;16.40;7.97;;;-4.90;43.20;;;-6.46;57.69;98840.72;5043155;28;20457;-73
2024/01/10 05:48:48;;;;;;;18.00;8.93;;;-4.90;43.30;;;-6.46;57.96;98840.72;5043117;28;20457;-74
2024/01/10 05:51:15;;;;;;;13.90;9.23;;;-4.90;43.30;;;-6.48;58.08;98843.47;5041183;28;20992;-75
2024/01/10 05:53:44;;;;;;;15.50;8.43;;;-4.90;43.20;;;-6.58;57.83;98827.34;5045814;28;20984;-77
2024/01/10 05:56:12;;;;;;;13.77;7.90;;;-4.90;43.20;;;-6.31;57.85;98854.78;5042345;28;20469;-72
2024/01/10 05:58:41;;;;;;;14.67;7.70;;;-4.80;43.40;;;-6.48;58.32;98838.19;5053622;28;20466;-76
2024/01/10 06:01:09;;;;;;;16.03;8.40;;;-4.90;43.40;;;-6.42;58.24;98832.56;5040465;28;21006;-74
2024/01/10 06:03:37;;;;;;;13.47;8.37;;;-4.90;43.40;;;-6.51;58.28;98841.00;5035704;28;20492;-80
2024/01/10 06:06:06;;;;;;;14.37;8.37;;;-4.90;43.50;;;-6.47;58.06;98837.25;5041892;28;21156;-76
2024/01/10 06:08:35;;;;;;;18.50;9.07;;;-4.90;43.50;;;-6.48;58.34;98842.59;5052314;28;21161;-83
2024/01/10 06:11:08;;;;;;;20.00;9.10;;;-4.90;43.50;;;-6.38;58.34;98846.41;5038335;28;20453;-77
2024/01/10 06:13:36;;;;;;;16.40;9.50;;;-4.80;43.70;;;-6.43;58.97;98845.84;5042167;28;20493;-75
2024/01/10 06:16:04;;;;;;;14.93;8.30;;;-4.90;43.70;;;-6.42;58.12;98842.25;5053290;28;20535;-72
2024/01/10 06:18:32;;;;;;;15.77;8.67;;;-4.90;43.70;;;-6.37;58.37;98855.13;5060812;28;20450;-71
2024/01/10 06:20:59;;;;;;;17.03;8.30;;;-4.90;43.70;;;-6.55;58.52;98837.69;5051984;28;21259;-74
2024/01/10 06:23:27;;;;;;;16.13;8.70;;;-4.90;43.70;;;-6.42;58.70;98847.53;5048225;28;20468;-75
2024/01/10 06:25:54;;;;;;;17.27;9.33;;;-4.90;43.90;;;-6.42;58.69;98868.56;5052463;28;20460;-79
2024/01/10 06:28:24;;;;;;;19.07;9.33;;;-4.90;43.80;;;-6.51;58.68;98850.66;5040180;28;20470;-75
2024/01/10 06:30:52;;;;;;;17.40;7.80;;;-5.00;43.90;;;-6.37;58.58;98857.75;5044222;28;20486;-77
2024/01/10 06:33:19;;;;;;;18.43;9.43;;;-5.00;44.00;;;-6.51;59.01;98855.91;5037069;28;20504;-78
2024/01/10 06:35:47;;;;;;;14.10;9.07;;;-5.00;44.00;;;-6.46;59.18;98856.50;5037154;28;20450;-77
2024/01/10 06:38:16;;;;;;;17.20;9.67;;;-5.00;44.20;;;-6.46;59.24;98872.28;5038206;28;20463;-78
2024/01/10 06:40:47;;;;;;;18.60;9.37;;;-5.00;44.10;;;-6.35;60.90;98869.91;5044505;28;20457;-78
2024/01/10 06:43:15;;;;;;;14.30;8.77;;;-4.90;45.00;;;-6.42;60.07;98869.41;5038293;28;20487;-71
2024/01/10 06:45:43;;;;;;;16.20;8.67;;;-4.90;45.10;;;-6.43;60.54;98866.88;5036204;28;20462;-76
2024/01/10 06:48:11;;;;;;;14.77;8.03;;;-5.00;45.00;;;-5.97;66.20;98864.19;5038053;28;20466;-72
2024/01/10 06:50:39;;;;;;;21.07;9.93;;;-4.60;50.80;;;-5.03;75.12;98870.00;5044318;28;20831;-76
2024/01/10 06:53:07;;;;;;;15.63;9.37;;;-4.00;61.30;;;-5.02;70.21;98865.59;5044342;28;20986;-77
2024/01/10 06:55:35;;;;;;;14.73;8.60;;;-3.70;62.50;;;-4.58;74.43;98869.84;5039223;28;20493;-74
2024/01/10 06:58:02;;;;;;;17.10;9.90;;;-3.40;66.70;;;-5.36;62.28;98872.94;5039788;28;20441;-69
2024/01/10 07:00:30;;;;;;;14.63;9.57;;;-3.80;54.90;;;-5.62;60.77;98878.00;5035389;28;20465;-68
2024/01/10 07:03:04;;;;;;;17.03;9.27;;;-4.10;51.80;;;-5.86;60.59;98883.75;5048406;28;20457;-67
2024/01/10 07:05:33;;;;;;;17.63;9.77;;;-4.30;51.00;;;-6.10;59.80;98865.88;5037151;28;20469;-66
2024/01/10 07:08:03;;;;;;;15.77;9.00;;;-4.50;50.20;;;-6.01;60.09;98878.44;5039893;28;20938;-66
2024/01/10 07:10:31;;;;;;;17.40;10.30;;;-4.60;50.10;;;-6.02;60.92;98874.16;5044062;28;20453;-68
2024/01/10 07:12:58;;;;;;;14.17;9.53;;;-4.70;50.40;;;-6.10;60.58;98880.78;5042182;28;20488;-67
2024/01/10 07:15:27;;;;;;;16.00;8.50;;;-4.70;50.50;;;-6.18;61.05;98882.09;5033389;28;20450;-69
2024/01/10 07:18:02;;;;;;;18.38;10.77;;;-4.80;50.40;;;-6.16;60.68;98893.38;5029675;28;20461;-68
2024/01/10 07:20:37;;;;;;;18.67;10.20;;;-4.70;50.40;;;-6.87;60.28;98800.94;5037426;28;20705;-68
2024/01/10 07:23:06;;;;;;;14.53;9.47;;;-4.80;49.80;;;-6.32;60.40;98888.13;5032225;28;20450;-68
2024/01/10 07:25:33;;;;;;;20.23;9.77;;;-4.90;49.80;;;-6.20;60.97;98877.84;5035196;28;20475;-68
2024/01/10 07:28:03;;;;;;;12.60;8.40;;;-4.80;50.50;;;-6.26;61.16;98892.19;5033852;28;20457;-68
2024/01/10 07:30:32;;;;;;;14.47;9.00;;;-4.80;50.20;;;-6.19;60.97;98900.59;5051164;28;20945;-69
2024/01/10 07:33:07;;;;;;;17.63;9.40;;;-4.80;50.20;;;-6.32;61.41;98895.19;5035843;28;20985;-67
2024/01/10 07:35:37;;;;;;;16.47;10.40;;;-4.80;50.10;;;-6.31;61.11;98896.88;5039399;28;20453;-68
2024/01/10 07:38:07;;;;;;;24.20;9.70;;;-4.90;50.00;;;-6.33;61.87;98902.22;5046048;28;20532;-68
2024/01/10 07:40:34;;;;;;;19.83;10.00;;;-4.90;50.20;;;-6.50;61.66;98845.31;5033495;28;20574;-69
2024/01/10 07:43:01;;;;;;;22.40;10.60;;;-4.80;50.70;;;-6.26;60.95;98906.22;5051929;28;20460;-68
2024/01/10 07:45:29;;;;;;;15.30;8.70;;;-4.80;50.10;;;-6.04;61.91;98907.59;5042512;28;20454;-70
2024/01/10 07:47:56;;;;;;;20.17;10.40;;;-4.60;51.30;;;-6.04;62.05;98912.88;5057719;28;20466;-70
2024/01/10 07:50:27;;;;;;;15.97;10.03;;;-4.70;51.10;;;-6.12;61.30;98901.94;5042215;28;20445;-69
2024/01/10 07:52:59;;;;;;;20.67;9.90;;;-4.70;50.80;;;-6.12;60.90;98904.59;5057443;28;21012;-67
2024/01/10 07:55:29;;;;;;;13.93;7.93;;;-4.80;50.20;;;-6.12;60.65;98909.84;5045801;28;20960;-68
2024/01/10 07:57:57;;;;;;;15.30;9.40;;;-4.80;50.10;;;-6.09;60.75;98912.28;5046382;28;20454;-67
2024/01/10 08:00:24;;;;;;;18.33;10.03;;;-4.80;50.00;;;-6.08;59.98;98918.38;5043616;28;20543;-67
2024/01/10 08:02:55;;;;;;;17.03;9.03;;;-4.70;49.60;;;-6.07;59.60;98905.16;5042315;28;20447;-66
2024/01/10 08:05:23;;;;;;;14.63;8.77;;;-4.60;49.50;;;-6.01;59.40;98919.75;5035649;28;20459;-66
2024/01/10 08:07:53;;;;;;;15.53;9.60;;;-4.50;49.10;;;-6.07;60.04;98926.22;5055712;28;20476;-66
2024/01/10 08:10:23;;;;;;;19.50;8.77;;;-4.60;49.20;;;-5.89;59.73;98926.06;5045071;28;20450;-66
2024/01/10 08:12:56;;;;;;;13.43;9.67;;;-4.50;49.40;;;-5.86;59.55;98915.34;5045686;28;20495;-66
2024/01/10 08:15:24;;;;;;;19.30;10.13;;;-4.50;49.30;;;-5.87;59.90;98918.91;5053182;28;20450;-65
2024/01/10 08:17:55;;;;;;;18.43;10.30;;;-4.50;49.30;;;-5.81;59.74;98923.84;5046374;28;20446;-66
2024/01/10 08:20:23;;;;;;;19.30;10.80;;;-4.40;49.50;;;-5.72;59.74;98925.91;5044417;28;20443;-68
2024/01/10 08:22:53;;;;;;;18.27;10.97;;;-4.40;49.50;;;-5.70;60.00;98924.03;5037255;28;20454;-66
2024/01/10 08:25:23;;;;;;;17.10;9.90;;;-4.30;49.50;;;-5.61;58.93;98929.72;5043616;28;20451;-66
2024/01/10 08:27:53;;;;;;;15.63;9.27;;;-4.20;49.20;;;-5.64;58.91;98930.72;5040160;28;20655;-67
2024/01/10 08:30:21;;;;;;;17.23;11.10;;;-4.20;49.10;;;-5.44;58.27;98929.56;5036862;28;20531;-67
2024/01/10 08:32:49;;;;;;;16.10;8.80;;;-4.10;48.80;;;-5.41;58.45;98924.09;5058643;28;20503;-67
2024/01/10 08:35:16;;;;;;;18.80;9.60;;;-4.10;48.80;;;-5.38;57.98;98916.94;5044784;28;20581;-66
2024/01/10 08:37:46;;;;;;;18.23;10.90;;;-4.00;48.70;;;-5.36;58.37;98921.19;5036405;28;20458;-67
2024/01/10 08:40:15;;;;;;;13.47;8.93;;;-3.90;48.70;;;-5.33;58.41;98928.09;5046463;28;20545;-68
2024/01/10 08:42:44;;;;;;;16.93;9.60;;;-3.90;48.70;;;-5.20;58.43;98929.03;5046775;28;20465;-66
2024/01/10 08:45:12;;;;;;;15.67;9.20;;;-3.90;48.80;;;-5.42;58.64;98938.22;5040467;28;20465;-66
2024/01/10 08:47:40;;;;;;;21.97;11.63;;;-3.90;48.70;;;-5.25;58.57;98928.44;5047087;28;20450;-66
2024/01/10 08:50:09;;;;;;;19.20;10.53;;;-3.80;49.10;;;-5.24;58.70;98934.59;5047773;28;20471;-66
2024/01/10 08:52:38;;;;;;;17.90;11.00;;;-3.80;48.60;;;-5.23;57.86;98931.00;5039140;28;20510;-69
2024/01/10 08:55:08;;;;;;;17.83;11.00;;;-3.80;48.30;;;-5.24;57.94;98935.41;5047917;28;20454;-66
2024/01/10 08:57:36;;;;;;;17.87;9.83;;;-3.80;48.20;;;-5.18;57.77;98937.69;5024854;28;20543;-66
2024/01/10 09:00:11;;;;;;;21.87;10.97;;;-3.70;48.20;;;-5.26;57.59;98929.38;5042395;28;20874;-67
2024/01/10 09:02:39;;;;;;;21.33;11.43;;;-3.70;48.10;;;-5.16;57.81;98938.44;5042583;28;20482;-67
2024/01/10 09:05:09;;;;;;;16.70;10.33;;;-3.60;48.30;;;-5.23;57.94;98947.69;5031568;28;20461;-67
2024/01/10 09:07:37;;;;;;;17.40;9.63;;;-3.70;48.00;;;-5.10;57.31;98950.41;5037645;28;20465;-68
2024/01/10 09:10:08;;;;;;;20.50;10.13;;;-3.70;47.90;;;-4.90;57.14;98935.16;5041678;28;20510;-67
2024/01/10 09:12:36;;;;;;;17.40;10.53;;;-3.50;48.10;;;-5.14;57.53;98941.00;5038053;28;20484;-68
2024/01/10 09:15:08;;;;;;;23.47;11.23;;;-3.60;47.80;;;-5.00;57.46;98932.25;5033417;28;20470;-68
2024/01/10 09:17:35;;;;;;;13.93;9.43;;;-3.50;48.10;;;-4.64;56.66;98938.81;5039469;28;20584;-68
2024/01/10 09:20:05;;;;;;;17.60;10.57;;;-3.40;48.00;;;-4.66;56.72;98943.31;5038509;28;20489;-68
2024/01/10 09:22:34;;;;;;;19.20;10.83;;;-3.30;47.90;;;-4.62;56.42;98931.66;5047836;28;21126;-68
2024/01/10 09:25:04;;;;;;;17.80;10.60;;;-3.20;47.80;;;-4.41;56.26;98944.44;5043575;28;20475;-68
2024/01/10 09:27:31;;;;;;;20.77;11.93;;;-3.10;47.90;;;-4.29;56.32;98945.44;5044537;28;20460;-67
2024/01/10 09:30:01;;;;;;;16.50;10.60;;;-3.00;47.90;;;-4.41;56.43;98945.25;5041201;28;20459;-67
2024/01/10 09:32:35;;;;;;;18.40;10.80;;;-3.00;47.90;;;-4.14;56.52;98954.19;5041691;28;20822;-68
2024/01/10 09:35:03;;;;;;;21.20;13.17;;;-2.90;48.00;;;-4.14;55.79;98948.91;5047190;28;20442;-68
2024/01/10 09:37:31;;;;;;;19.10;10.67;;;-2.80;47.80;;;-4.14;56.15;98959.47;5042630;28;20450;-68
2024/01/10 09:40:10;;;;;;;25.13;11.00;;;-2.80;47.70;;;-4.16;56.08;98958.72;5040542;28;20462;-67
2024/01/10 09:42:38;;;;;;;19.00;10.87;;;-2.80;47.70;;;-4.25;56.47;98961.94;5011849;28;20993;-68
2024/01/10 09:45:09;;;;;;;23.80;11.07;;;-2.80;47.60;;;-4.02;56.16;98961.31;5043249;28;20449;-69
2024/01/10 09:47:42;;;;;;;18.77;11.07;;;-2.70;47.80;;;-3.91;55.49;98963.25;5024604;28;20497;-67
2024/01/10 09:50:11;;;;;;;18.50;10.73;;;-2.60;47.70;;;-3.81;55.84;98967.91;5045521;28;20456;-68
2024/01/10 09:52:50;;;;;;;20.40;11.50;;;-2.50;47.70;;;-3.85;55.58;98968.13;5044350;28;20533;-68
2024/01/10 09:55:20;;;;;;;19.23;11.60;;;-2.50;47.50;;;-4.29;55.08;98875.03;5033872;28;21043;-69
2024/01/10 09:57:49;;;;;;;18.17;12.80;;;-2.40;47.50;;;-3.77;55.50;98959.69;5039340;28;20490;-67
2024/01/10 10:00:20;;;;;;;19.07;12.63;;;-2.40;47.40;;;-3.85;56.19;98959.38;5044654;28;20457;-68
2024/01/10 10:02:50;;;;;;;18.17;11.17;;;-2.40;47.60;;;-3.76;55.58;98956.09;5042838;28;20451;-68
2024/01/10 10:05:19;;;;;;;16.60;10.40;;;-2.30;47.70;;;-4.12;55.33;98891.56;5052107;28;20849;-67
2024/01/10 10:07:49;;;;;;;18.40;11.20;;;-2.30;47.40;;;-3.64;55.25;98954.47;5026788;28;20786;-67
2024/01/10 10:10:20;;;;;;;18.87;10.87;;;-2.30;47.30;;;-3.86;56.05;98949.75;5044429;28;20443;-68
2024/01/10 10:12:50;;;;;;;16.73;11.50;;;-2.40;47.30;;;-3.66;55.74;98939.66;5049020;28;20557;-68
2024/01/10 10:15:21;;;;;;;22.50;11.57;;;-2.30;47.60;;;-3.28;55.22;98958.22;5015031;28;20462;-68